createdAt,value
2022-11-27T00:03:43.267Z,28.45
2022-11-27T00:06:31.482Z,27.67
2022-11-27T00:09:18.620Z,27.23
2022-11-27T00:12:05.992Z,23.73
2022-11-27T00:14:55.554Z,24.02
2022-11-27T00:17:42.965Z,20.73
2022-11-27T00:20:30.216Z,26.15
2022-11-27T00:23:17.301Z,24.15
2022-11-27T00:26:05.943Z,21.85
2022-11-27T00:28:53.182Z,25.38
2022-11-27T00:31:40.383Z,26.65
2022-11-27T00:34:27.574Z,28.63
2022-11-27T00:37:15.197Z,22.52
2022-11-27T00:40:02.321Z,22.00
2022-11-27T00:42:49.723Z,25.08
2022-11-27T00:45:36.953Z,25.20
2022-11-27T00:48:24.089Z,25.08
2022-11-27T00:51:15.197Z,21.80
2022-11-27T00:54:02.604Z,23.77
2022-11-27T00:56:49.781Z,24.92
2022-11-27T00:59:36.895Z,30.15
2022-11-27T01:02:23.966Z,27.92
2022-11-27T01:05:11.425Z,24.42
2022-11-27T01:07:58.581Z,26.05
2022-11-27T01:10:54.919Z,27.30
2022-11-27T01:13:42.961Z,31.02
2022-11-27T01:16:33.615Z,30.25
2022-11-27T01:19:20.849Z,28.92
2022-11-27T01:22:07.965Z,30.73
2022-11-27T01:24:55.027Z,34.00
2022-11-27T01:27:42.110Z,33.55
2022-11-27T01:30:29.873Z,34.38
2022-11-27T01:33:17.876Z,36.97
2022-11-27T01:36:06.622Z,36.45
2022-11-27T01:38:54.212Z,29.00
2022-11-27T01:41:41.464Z,31.30
2022-11-27T01:44:28.529Z,37.35
2022-11-27T01:47:23.129Z,34.47
2022-11-27T01:50:37.717Z,31.20
2022-11-27T01:53:25.062Z,31.27
2022-11-27T01:56:12.442Z,32.45
2022-11-27T01:59:00.297Z,41.60
2022-11-27T02:01:47.487Z,32.72
2022-11-27T02:04:34.524Z,31.30
2022-11-27T02:07:22.074Z,48.35
2022-11-27T02:10:09.909Z,36.85
2022-11-27T02:13:04.778Z,38.03
2022-11-27T02:15:59.886Z,31.52
2022-11-27T02:18:49.650Z,32.20
2022-11-27T02:21:50.498Z,35.35
2022-11-27T02:24:55.365Z,39.78
2022-11-27T02:28:06.588Z,41.55
2022-11-27T02:31:03.533Z,38.75
2022-11-27T02:33:56.383Z,43.03
2022-11-27T02:36:50.018Z,48.38
2022-11-27T02:39:49.256Z,50.22
2022-11-27T02:42:40.865Z,44.70
2022-11-27T02:45:36.919Z,41.85
2022-11-27T02:48:33.747Z,43.00
2022-11-27T02:51:26.532Z,49.70
2022-11-27T02:54:20.644Z,54.78
2022-11-27T02:57:10.356Z,63.15
2022-11-27T02:59:58.293Z,52.05
2022-11-27T03:02:56.990Z,53.85
2022-11-27T03:05:48.548Z,51.88
2022-11-27T03:08:39.140Z,42.33
2022-11-27T03:11:30.910Z,42.35
2022-11-27T03:14:20.483Z,42.58
2022-11-27T03:17:52.580Z,40.95
2022-11-27T03:20:43.541Z,41.38
2022-11-27T03:23:30.723Z,46.85
2022-11-27T03:26:17.935Z,43.50
2022-11-27T03:29:09.671Z,42.03
2022-11-27T03:31:58.157Z,39.85
2022-11-27T03:34:46.960Z,32.95
2022-11-27T03:37:34.073Z,35.10
2022-11-27T03:40:26.469Z,40.08
2022-11-27T03:43:24.185Z,37.97
2022-11-27T03:46:22.411Z,40.20
2022-11-27T03:49:16.585Z,38.70
2022-11-27T03:52:27.062Z,34.30
2022-11-27T03:55:27.787Z,33.47
2022-11-27T03:58:27.397Z,33.30
2022-11-27T04:01:17.943Z,37.80
2022-11-27T04:04:05.259Z,36.95
2022-11-27T04:06:52.362Z,34.53
2022-11-27T04:09:39.487Z,37.15
2022-11-27T04:12:26.538Z,33.33
2022-11-27T04:15:14.251Z,35.33
2022-11-27T04:18:01.406Z,32.33
2022-11-27T04:20:48.542Z,33.53
2022-11-27T04:23:37.823Z,39.42
2022-11-27T04:26:24.966Z,37.10
2022-11-27T04:29:12.088Z,32.80
2022-11-27T04:31:59.253Z,34.13
2022-11-27T04:34:46.333Z,32.78
2022-11-27T04:37:33.568Z,35.05
2022-11-27T04:40:20.699Z,32.40
2022-11-27T04:43:08.249Z,30.13
2022-11-27T04:45:55.646Z,25.52
2022-11-27T04:48:43.187Z,28.38
2022-11-27T04:51:30.625Z,30.25
2022-11-27T04:54:18.274Z,29.10
2022-11-27T04:57:06.078Z,28.35
2022-11-27T05:02:29.236Z,27.45
2022-11-27T05:05:17.425Z,31.13
2022-11-27T05:08:04.701Z,28.20
2022-11-27T05:11:00.590Z,27.83
2022-11-27T05:13:47.689Z,26.20
2022-11-27T05:16:34.805Z,26.58
2022-11-27T05:19:24.666Z,28.77
2022-11-27T05:22:11.819Z,24.95
2022-11-27T05:24:58.851Z,25.70
2022-11-27T05:27:45.961Z,25.10
2022-11-27T05:30:33.040Z,24.02
2022-11-27T05:33:20.225Z,28.50
2022-11-27T05:36:07.511Z,25.33
2022-11-27T05:38:54.768Z,25.55
2022-11-27T05:41:43.304Z,25.92
2022-11-27T05:44:30.546Z,20.88
2022-11-27T05:47:17.561Z,23.75
2022-11-27T05:50:07.585Z,24.42
2022-11-27T05:52:54.590Z,26.85
2022-11-27T05:55:41.632Z,30.88
2022-11-27T05:58:28.688Z,28.75
2022-11-27T06:01:18.250Z,29.20
2022-11-27T06:04:05.517Z,30.58
2022-11-27T06:06:52.585Z,30.85
2022-11-27T06:09:39.665Z,24.27
2022-11-27T06:12:26.801Z,25.50
2022-11-27T06:15:13.917Z,25.08
2022-11-27T06:18:01.093Z,22.75
2022-11-27T06:20:59.223Z,22.42
2022-11-27T06:23:46.680Z,23.73
2022-11-27T06:26:34.200Z,24.98
2022-11-27T06:29:21.265Z,24.20
2022-11-27T06:32:08.455Z,23.15
2022-11-27T06:34:55.732Z,20.55
2022-11-27T06:37:42.760Z,24.35
2022-11-27T06:40:29.828Z,23.17
2022-11-27T06:43:16.892Z,21.67
2022-11-27T06:46:05.637Z,21.83
2022-11-27T06:48:54.251Z,23.15
2022-11-27T06:51:42.391Z,19.58
2022-11-27T06:54:31.464Z,21.45
2022-11-27T06:57:18.510Z,18.23
2022-11-27T07:00:06.986Z,19.95
2022-11-27T07:02:55.748Z,18.90
2022-11-27T07:05:42.863Z,18.98
2022-11-27T07:08:31.220Z,20.48
2022-11-27T07:11:21.096Z,20.55
2022-11-27T07:14:08.350Z,18.48
2022-11-27T07:16:56.431Z,18.63
2022-11-27T07:19:43.730Z,18.27
2022-11-27T07:22:32.670Z,27.33
2022-11-27T07:25:19.898Z,38.58
2022-11-27T07:28:07.133Z,38.35
2022-11-27T07:31:06.790Z,39.47
2022-11-27T07:33:56.099Z,42.13
2022-11-27T07:36:43.233Z,36.93
2022-11-27T07:39:54.432Z,39.42
2022-11-27T07:42:38.715Z,38.63
2022-11-27T07:45:29.502Z,41.75
2022-11-27T07:51:06.726Z,49.83
2022-11-27T07:53:53.817Z,44.67
2022-11-27T07:56:40.870Z,40.30
2022-11-27T07:59:33.003Z,40.95
2022-11-27T08:02:20.095Z,46.38
2022-11-27T08:05:12.460Z,43.63
2022-11-27T08:08:01.467Z,40.38
2022-11-27T08:10:48.815Z,50.05
2022-11-27T08:13:35.863Z,42.28
2022-11-27T08:16:23.046Z,45.25
2022-11-27T08:19:11.000Z,48.47
2022-11-27T08:21:58.528Z,47.15
2022-11-27T08:24:48.836Z,47.47
2022-11-27T08:27:36.492Z,49.80
2022-11-27T08:30:26.319Z,49.22
2022-11-27T08:33:19.161Z,42.40
2022-11-27T08:36:10.616Z,42.25
2022-11-27T08:39:01.728Z,37.80
2022-11-27T08:41:48.819Z,43.38
2022-11-27T08:44:36.852Z,33.92
2022-11-27T08:47:23.906Z,33.85
2022-11-27T08:50:10.967Z,32.17
2022-11-27T08:52:57.926Z,35.00
2022-11-27T08:55:45.556Z,32.47
2022-11-27T08:58:32.880Z,30.40
2022-11-27T09:01:25.864Z,33.70
2022-11-27T09:04:13.016Z,31.33
2022-11-27T09:07:00.137Z,34.60
2022-11-27T09:09:47.237Z,29.70
2022-11-27T09:12:35.722Z,32.55
2022-11-27T09:15:25.239Z,26.40
2022-11-27T09:18:14.442Z,24.75
2022-11-27T09:21:10.757Z,24.90
2022-11-27T09:24:00.159Z,27.95
2022-11-27T09:26:47.459Z,20.33
2022-11-27T09:29:35.322Z,24.55
2022-11-27T09:32:23.221Z,24.23
2022-11-27T09:35:11.573Z,23.58
2022-11-27T09:37:59.068Z,21.10
2022-11-27T09:40:51.641Z,22.33
2022-11-27T09:43:57.931Z,21.92
2022-11-27T09:46:45.444Z,17.30
2022-11-27T09:49:41.789Z,22.45
2022-11-27T09:52:42.206Z,19.88
2022-11-27T09:55:44.626Z,17.70
2022-11-27T09:58:40.803Z,26.45
2022-11-27T10:01:36.594Z,17.30
2022-11-27T10:04:30.458Z,21.05
2022-11-27T10:07:50.835Z,16.25
2022-11-27T10:11:25.940Z,25.10
2022-11-27T10:14:28.161Z,21.80
2022-11-27T10:17:23.358Z,19.08
2022-11-27T10:20:29.432Z,19.77
2022-11-27T10:23:54.709Z,23.60
2022-11-27T10:26:47.311Z,21.80
2022-11-27T10:29:50.268Z,18.48
2022-11-27T10:32:56.087Z,20.55
2022-11-27T10:35:45.046Z,20.10
2022-11-27T10:38:39.277Z,18.48
2022-11-27T10:41:48.888Z,22.67
2022-11-27T10:44:44.495Z,20.27
2022-11-27T10:47:33.935Z,20.92
2022-11-27T10:50:21.309Z,23.00
2022-11-27T10:53:18.132Z,21.45
2022-11-27T10:56:05.164Z,22.58
2022-11-27T10:58:58.235Z,20.70
2022-11-27T11:01:48.813Z,20.98
2022-11-27T11:04:38.311Z,19.13
2022-11-27T11:10:30.046Z,19.60
2022-11-27T11:13:20.482Z,25.85
2022-11-27T11:16:24.417Z,21.52
2022-11-27T11:19:23.650Z,22.80
2022-11-27T11:22:16.597Z,23.10
2022-11-27T11:25:03.752Z,24.88
2022-11-27T11:27:52.728Z,19.98
2022-11-27T11:30:39.857Z,21.58
2022-11-27T11:33:28.061Z,24.17
2022-11-27T11:36:15.528Z,19.98
2022-11-27T11:39:02.828Z,21.08
2022-11-27T11:41:50.066Z,21.85
2022-11-27T11:44:39.181Z,21.70
2022-11-27T11:47:26.972Z,21.03
2022-11-27T11:50:17.028Z,20.35
2022-11-27T11:53:38.834Z,18.58
2022-11-27T11:56:33.836Z,20.95
2022-11-27T11:59:37.563Z,17.90
2022-11-27T12:02:50.508Z,19.90
2022-11-27T12:05:37.625Z,19.02
2022-11-27T12:08:25.305Z,19.88
2022-11-27T12:11:23.827Z,21.25
2022-11-27T12:14:22.779Z,22.48
2022-11-27T12:17:44.281Z,17.90
2022-11-27T12:20:52.468Z,19.13
2022-11-27T12:24:01.180Z,18.35
2022-11-27T12:26:56.799Z,17.73
2022-11-27T12:30:09.013Z,18.25
2022-11-27T12:33:18.457Z,20.67
2022-11-27T12:36:41.271Z,17.60
2022-11-27T12:39:54.889Z,16.92
2022-11-27T12:42:51.009Z,14.98
2022-11-27T12:45:44.300Z,16.58
2022-11-27T12:48:36.796Z,17.33
2022-11-27T12:51:32.535Z,14.77
2022-11-27T12:54:29.968Z,15.55
2022-11-27T12:57:23.965Z,13.82
2022-11-27T13:00:24.269Z,10.95
2022-11-27T13:03:53.326Z,14.43
2022-11-27T13:06:55.298Z,18.00
2022-11-27T13:09:58.294Z,12.38
2022-11-27T13:13:13.612Z,13.05
2022-11-27T13:16:25.377Z,9.02
2022-11-27T13:19:25.778Z,9.23
2022-11-27T13:22:20.899Z,12.98
2022-11-27T13:25:14.976Z,9.50
2022-11-27T13:28:05.488Z,12.32
2022-11-27T13:30:55.928Z,11.45
2022-11-27T13:33:46.018Z,10.77
2022-11-27T13:36:42.196Z,13.50
2022-11-27T13:39:34.223Z,9.65
2022-11-27T13:42:22.504Z,9.65
2022-11-27T13:45:19.490Z,9.30
2022-11-27T13:48:29.408Z,12.63
2022-11-27T13:51:32.528Z,7.53
2022-11-27T13:54:27.484Z,7.35
2022-11-27T13:57:18.461Z,8.80
2022-11-27T14:00:10.415Z,13.45
2022-11-27T14:02:57.875Z,9.55
2022-11-27T14:05:45.896Z,11.15
2022-11-27T14:08:35.564Z,11.75
2022-11-27T14:11:34.115Z,12.40
2022-11-27T14:14:25.090Z,12.43
2022-11-27T14:17:26.993Z,15.27
2022-11-27T14:20:16.985Z,11.40
2022-11-27T14:23:12.460Z,11.32
2022-11-27T14:26:20.704Z,11.18
2022-11-27T14:29:12.638Z,10.73
2022-11-27T14:32:02.409Z,10.68
2022-11-27T14:34:50.528Z,10.15
2022-11-27T14:37:38.006Z,11.98
2022-11-27T14:40:27.534Z,13.15
2022-11-27T14:43:18.650Z,15.77
2022-11-27T14:46:12.403Z,10.43
2022-11-27T14:49:00.332Z,11.65
2022-11-27T14:51:49.348Z,9.43
2022-11-27T14:54:39.809Z,9.65
2022-11-27T14:57:29.540Z,9.18
2022-11-27T15:00:27.252Z,9.00
2022-11-27T15:03:18.549Z,8.00
2022-11-27T15:06:08.296Z,15.63
2022-11-27T15:09:23.834Z,11.88
2022-11-27T15:12:15.022Z,6.25
2022-11-27T15:15:08.581Z,9.88
2022-11-27T15:17:59.324Z,10.32
2022-11-27T15:20:47.316Z,11.63
2022-11-27T15:23:35.933Z,9.60
2022-11-27T15:26:36.856Z,10.52
2022-11-27T15:29:36.285Z,8.77
2022-11-27T15:32:25.802Z,6.60
2022-11-27T15:35:15.153Z,5.40
2022-11-27T15:38:10.847Z,6.22
2022-11-27T15:41:02.512Z,11.38
2022-11-27T15:43:50.525Z,10.52
2022-11-27T15:46:37.884Z,12.05
2022-11-27T15:49:25.862Z,6.78
2022-11-27T15:52:13.622Z,7.53
2022-11-27T15:55:01.398Z,10.20
2022-11-27T15:57:49.178Z,10.98
2022-11-27T16:00:36.596Z,11.38
2022-11-27T16:03:23.964Z,9.63
2022-11-27T16:06:11.422Z,6.72
2022-11-27T16:09:00.760Z,10.07
2022-11-27T16:11:48.461Z,7.25
2022-11-27T16:14:35.719Z,8.63
2022-11-27T16:17:22.968Z,8.52
2022-11-27T16:20:10.730Z,9.05
2022-11-27T16:22:57.879Z,9.85
2022-11-27T16:25:45.197Z,11.27
2022-11-27T16:28:33.186Z,10.30
2022-11-27T16:31:22.387Z,9.50
2022-11-27T16:34:10.688Z,13.07
2022-11-27T16:36:58.357Z,11.43
2022-11-27T16:39:45.849Z,11.95
2022-11-27T16:42:33.722Z,14.65
2022-11-27T16:45:21.470Z,12.60
2022-11-27T16:48:08.786Z,15.82
2022-11-27T16:51:07.537Z,15.73
2022-11-27T16:53:56.675Z,11.60
2022-11-27T16:56:44.989Z,13.60
2022-11-27T16:59:32.918Z,20.35
2022-11-27T17:02:20.824Z,197.25
2022-11-27T17:05:10.049Z,431.77
2022-11-27T17:07:57.906Z,123.65
2022-11-27T17:10:45.600Z,114.75
2022-11-27T17:13:33.276Z,107.07
2022-11-27T17:16:23.290Z,92.82
2022-11-27T17:19:16.585Z,49.65
2022-11-27T17:22:04.714Z,42.25
2022-11-27T17:24:58.485Z,26.85
2022-11-27T17:27:46.003Z,25.38
2022-11-27T17:30:37.944Z,22.70
2022-11-27T17:33:28.025Z,16.27
2022-11-27T17:36:16.712Z,18.25
2022-11-27T17:39:06.150Z,18.80
2022-11-27T17:41:53.588Z,21.85
2022-11-27T17:44:43.247Z,15.30
2022-11-27T17:47:30.780Z,13.52
2022-11-27T17:50:18.104Z,14.15
2022-11-27T17:53:06.044Z,13.57
2022-11-27T17:55:55.647Z,13.18
2022-11-27T17:58:43.911Z,10.98
2022-11-27T18:01:35.254Z,15.88
2022-11-27T18:04:23.736Z,11.75
2022-11-27T18:07:12.518Z,13.85
2022-11-27T18:10:01.656Z,15.15
2022-11-27T18:12:50.509Z,11.07
2022-11-27T18:15:38.245Z,18.00
2022-11-27T18:18:26.085Z,16.05
2022-11-27T18:21:20.114Z,11.73
2022-11-27T18:24:22.977Z,15.30
2022-11-27T18:27:15.861Z,12.25
2022-11-27T18:30:05.255Z,14.77
2022-11-27T18:32:53.183Z,13.27
2022-11-27T18:35:46.903Z,13.15
2022-11-27T18:38:42.219Z,16.63
2022-11-27T18:41:30.079Z,13.48
2022-11-27T18:44:19.760Z,20.20
2022-11-27T18:47:10.585Z,15.50
2022-11-27T18:50:00.247Z,18.02
2022-11-27T18:52:48.762Z,14.52
2022-11-27T18:55:40.833Z,15.70
2022-11-27T18:58:31.284Z,16.83
2022-11-27T19:01:22.848Z,20.35
2022-11-27T19:04:11.991Z,20.45
2022-11-27T19:07:00.032Z,22.95
2022-11-27T19:09:50.960Z,20.73
2022-11-27T19:12:39.048Z,22.08
2022-11-27T19:15:26.690Z,22.13
2022-11-27T19:18:14.858Z,23.05
2022-11-27T19:21:07.988Z,20.13
2022-11-27T19:23:57.841Z,25.02
2022-11-27T19:26:46.088Z,22.63
2022-11-27T19:29:33.798Z,24.65
2022-11-27T19:32:26.609Z,24.20
2022-11-27T19:35:15.302Z,21.70
2022-11-27T19:38:05.888Z,20.30
2022-11-27T19:40:54.261Z,21.73
2022-11-27T19:43:42.686Z,25.33
2022-11-27T19:46:32.923Z,20.42
2022-11-27T19:49:22.610Z,16.95
2022-11-27T19:52:11.085Z,20.80
2022-11-27T19:54:59.166Z,16.73
2022-11-27T19:57:46.816Z,20.48
2022-11-27T20:00:35.030Z,20.48
2022-11-27T20:03:23.094Z,18.40
2022-11-27T20:06:15.931Z,17.25
2022-11-27T20:09:06.690Z,17.50
2022-11-27T20:11:54.511Z,21.63
2022-11-27T20:14:42.243Z,16.75
2022-11-27T20:17:30.822Z,16.45
2022-11-27T20:20:19.984Z,17.88
2022-11-27T20:23:08.100Z,16.90
2022-11-27T20:25:56.378Z,20.63
2022-11-27T20:28:46.711Z,15.43
2022-11-27T20:31:38.308Z,17.40
2022-11-27T20:34:27.101Z,17.75
2022-11-27T20:37:15.448Z,18.90
2022-11-27T20:40:02.786Z,19.30
2022-11-27T20:42:50.408Z,20.27
2022-11-27T20:45:42.247Z,19.25
2022-11-27T20:48:30.689Z,19.95
2022-11-27T20:51:21.198Z,19.35
2022-11-27T20:54:11.890Z,24.27
2022-11-27T20:57:00.038Z,27.73
2022-11-27T20:59:47.540Z,27.15
2022-11-27T21:02:37.225Z,26.95
2022-11-27T21:05:24.452Z,28.88
2022-11-27T21:08:12.283Z,29.85
2022-11-27T21:11:07.620Z,23.90
2022-11-27T21:13:58.631Z,27.95
2022-11-27T21:16:49.061Z,28.98
2022-11-27T21:19:36.827Z,25.75
2022-11-27T21:22:24.318Z,25.92
2022-11-27T21:25:11.960Z,23.58
2022-11-27T21:27:59.832Z,24.52
2022-11-27T21:30:46.846Z,24.60
2022-11-27T21:33:35.094Z,22.08
2022-11-27T21:36:25.004Z,32.60
2022-11-27T21:39:13.550Z,23.90
2022-11-27T21:42:00.540Z,29.25
2022-11-27T21:44:47.614Z,87.22
2022-11-27T21:47:37.511Z,96.97
2022-11-27T21:50:24.583Z,28.60
2022-11-27T21:53:11.603Z,32.28
2022-11-27T21:55:58.987Z,23.45
2022-11-27T21:58:46.518Z,25.20
2022-11-27T22:01:33.706Z,21.08
2022-11-27T22:04:21.430Z,21.58
2022-11-27T22:07:08.549Z,24.02
2022-11-27T22:09:55.558Z,26.77
2022-11-27T22:12:42.603Z,24.98
2022-11-27T22:15:29.641Z,30.60
2022-11-27T22:18:16.881Z,30.40
2022-11-27T22:21:05.248Z,25.20
2022-11-27T22:23:52.322Z,26.70
2022-11-27T22:26:40.151Z,23.83
2022-11-27T22:29:27.299Z,25.30
2022-11-27T22:32:14.340Z,26.33
2022-11-27T22:35:01.358Z,25.88
2022-11-27T22:37:48.382Z,28.73
2022-11-27T22:40:35.577Z,32.97
2022-11-27T22:43:22.559Z,29.80
2022-11-27T22:46:16.574Z,28.02
2022-11-27T22:49:05.911Z,31.33
2022-11-27T22:51:53.377Z,34.67
2022-11-27T22:54:40.701Z,30.60
2022-11-27T22:57:27.987Z,26.92
2022-11-27T23:00:15.443Z,38.40
2022-11-27T23:03:02.705Z,33.30
2022-11-27T23:05:50.013Z,30.17
2022-11-27T23:08:37.275Z,30.50
2022-11-27T23:11:26.747Z,27.60
2022-11-27T23:14:13.837Z,27.63
2022-11-27T23:17:00.934Z,29.13
2022-11-27T23:19:48.008Z,28.90
2022-11-27T23:22:35.785Z,37.28
2022-11-27T23:25:22.802Z,33.92
2022-11-27T23:28:09.961Z,37.67
2022-11-27T23:31:22.215Z,36.63
2022-11-27T23:34:07.950Z,33.40
2022-11-27T23:36:55.150Z,39.67
2022-11-27T23:39:42.202Z,39.65
2022-11-27T23:42:29.310Z,39.47
2022-11-27T23:45:16.598Z,40.42
2022-11-27T23:48:03.923Z,39.38
2022-11-27T23:50:50.882Z,36.28
2022-11-27T23:53:38.193Z,38.95
2022-11-27T23:56:28.096Z,38.25
2022-11-27T23:59:15.121Z,40.00
